• Join FlightAware (Why Join?)
  • Login
  • US Flag 
05:03AM EDT


 

Airport Tracker/Info


-or-


 

Live Flight TrackerFlight Track Log ✈ TFX114 ✈ 18-Sep-2013 ✈ YCFS - YBNA / BNK

Flight Track Log - Related Links

Times and Time Zones

All times are in EDT time to prevent confusion due to time zone crossing. See the TFX114 flight status page for this flight to view local times or setup timezone preferences in your user account.

Time Position Orientation Groundspeed Altitude Reporting Facility
EDT Latitude Longitude Course Direction KTS MPH feet Rate Location/Type
06:11PM -30.2169 153.1551 North 191 220 4,900  Level Aus ATC (RADAR)
06:11PM -30.2031 153.1571 North 194 223 5,400 1,500 Climbing Aus ATC (RADAR)
06:12PM -30.1258 153.1803 15° North 218 251 7,300 1,380 Climbing Aus ATC (RADAR)
06:13PM -30.1057 153.1873 17° North 222 255 7,700 1,200 Climbing Aus ATC (RADAR)
06:13PM -30.0704 153.2000 17° North 227 261 8,400 1,560 Climbing Aus ATC (RADAR)
06:14PM -30.0254 153.2140 15° North 220 253 9,800 1,740 Climbing Aus ATC (RADAR)
06:15PM -29.9867 153.2246 13° North 212 244 10,900 1,320 Climbing Aus ATC (RADAR)
06:15PM -29.9326 153.2391 13° North 220 253 11,900 1,080 Climbing Aus ATC (RADAR)
06:16PM -29.9121 153.2447 13° North 224 258 12,300 420 Climbing Aus ATC (RADAR)
06:18PM -29.7759 153.2819 13° North 269 310 12,900 240 Climbing Aus ATC (RADAR)
06:18PM -29.7510 153.2886 13° North 274 315 12,900  Level Aus ATC (RADAR)
06:19PM -29.7073 153.3008 14° North 276 318 12,900  Level Aus ATC (RADAR)
06:19PM -29.6509 153.3162 13° North 277 319 12,900  Level Aus ATC (RADAR)
06:20PM -29.6003 153.3304 14° North 279 321 12,900  Level Aus ATC (RADAR)
06:21PM -29.5372 153.3470 13° North 278 320 12,900  Level Aus ATC (RADAR)
06:21PM -29.5186 153.3526 15° North 278 320 12,900  Level Aus ATC (RADAR)
06:22PM -29.4324 153.3775 14° North 272 313 12,900  Level Aus ATC (RADAR)
06:23PM -29.4013 153.3864 14° North 273 314 12,900 -540 Level Aus ATC (RADAR)
06:23PM -29.3573 153.3989 14° North 280 322 12,400 -1,320 Descending Aus ATC (RADAR)
06:24PM -29.2909 153.4188 15° North 296 341 11,100 -1,680 Descending Aus ATC (RADAR)
06:25PM -29.2453 153.4327 15° North 292 336 10,100 -1,620 Descending Aus ATC (RADAR)
06:26PM -29.1750 153.4560 16° North 287 330 8,700 -1,680 Descending Aus ATC (RADAR)
06:26PM -29.1558 153.4627 17° North 288 331 8,200 -1,800 Descending Aus ATC (RADAR)
06:27PM -29.0652 153.5047 22° Northeast 279 321 6,000 -1,800 Descending Aus ATC (RADAR)
06:28PM -29.0257 153.5251 24° Northeast 268 308 5,000 -1,560 Descending Aus ATC (RADAR)
06:28PM -29.0092 153.5336 24° Northeast 264 304 4,700 -1,800 Descending Aus ATC (RADAR)
06:29PM -28.9701 153.5532 24° Northeast 262 302 3,500 -1,860 Descending Aus ATC (RADAR)
06:29PM -28.9196 153.5842 28° Northeast 247 284 2,100 -1,500 Descending Aus ATC (RADAR)
06:30PM -28.8848 153.6026 25° Northeast 238 274 1,400 -540 Descending Aus ATC (RADAR)
06:31PM -28.8417 153.6215 21° North 174 200 1,300 -360 Descending Aus ATC (RADAR)
06:31PM -28.8321 153.6192 348° North 156 180 1,000 -900 Descending Aus ATC (RADAR)
06:32PM -28.8262 153.5838 281° West 119 137 200 -840 Descending Aus ATC (RADAR)